Time;durP1;ratioP1;P1;durP2;ratioP2;P2;SDS_P1;SDS_P2;PMS_P1;PMS_P2;Temp;Humidity;BMP_temperature;BMP_pressure;BME280_temperature;BME280_humidity;BME280_pressure;Samples;Min_cycle;Max_cycle;Signal;HPM_P1;HPM_P2
2022/06/22 00:01:05;;;;;;;11.37;6.10;;;21.50;99.90;;;;;;4992094;28;20432;-77
2022/06/22 00:03:33;;;;;;;17.63;7.10;;;21.50;99.90;;;;;;4994026;28;20587;-78
2022/06/22 00:06:00;;;;;;;12.37;6.30;;;21.50;99.90;;;;;;4992196;28;20438;-77
2022/06/22 00:08:30;;;;;;;14.33;7.30;;;21.50;99.90;;;;;;4993693;28;20453;-77
2022/06/22 00:11:11;;;;;;;14.50;6.00;;;21.50;99.90;;;;;;4992028;28;20520;-77
2022/06/22 00:13:37;;;;;;;11.23;5.90;;;21.50;99.90;;;;;;5008307;28;20487;-77
2022/06/22 00:16:16;;;;;;;16.57;6.53;;;21.50;99.90;;;;;;4993664;28;20430;-77
2022/06/22 00:18:46;;;;;;;9.83;6.00;;;21.50;99.90;;;;;;4993749;28;20178;-77
2022/06/22 00:21:33;;;;;;;12.80;6.63;;;21.40;99.90;;;;;;4993151;28;20516;-77
2022/06/22 00:24:03;;;;;;;7.40;6.30;;;21.30;99.90;;;;;;4993985;28;20444;-79
2022/06/22 00:26:36;;;;;;;9.60;5.90;;;21.40;99.90;;;;;;5009817;28;20438;-75
2022/06/22 00:29:18;;;;;;;7.63;6.30;;;21.40;99.90;;;;;;4993030;28;20486;-79
2022/06/22 00:31:49;;;;;;;11.07;6.20;;;21.40;99.90;;;;;;4994630;28;20936;-78
2022/06/22 00:34:15;;;;;;;14.03;7.20;;;21.40;99.90;;;;;;4995248;28;20524;-78
2022/06/22 00:36:40;;;;;;;10.50;6.30;;;21.50;99.90;;;;;;4995301;28;21206;-78
2022/06/22 00:39:28;;;;;;;11.57;6.50;;;21.40;99.90;;;;;;4992895;28;20671;-77
2022/06/22 00:42:14;;;;;;;8.20;5.93;;;21.50;99.90;;;;;;4991619;28;20321;-77
2022/06/22 00:45:03;;;;;;;11.67;7.30;;;21.50;99.90;;;;;;4992678;28;20444;-77
2022/06/22 00:47:43;;;;;;;15.03;7.47;;;21.30;99.90;;;;;;4992576;28;20425;-77
2022/06/22 00:50:26;;;;;;;12.00;6.37;;;21.30;99.90;;;;;;4991687;28;20938;-77
2022/06/22 00:53:05;;;;;;;12.60;5.97;;;21.30;99.90;;;;;;4992862;28;20426;-77
2022/06/22 00:55:41;;;;;;;14.30;7.43;;;21.20;99.90;;;;;;4995888;28;20430;-77
2022/06/22 00:58:39;;;;;;;13.07;6.20;;;21.10;99.90;;;;;;4996483;28;20408;-79
2022/06/22 01:01:13;;;;;;;8.63;6.63;;;21.20;99.90;;;;;;4996852;28;20452;-78
2022/06/22 01:04:00;;;;;;;10.17;6.60;;;21.30;99.90;;;;;;5011556;28;20469;-78
2022/06/22 01:06:30;;;;;;;17.07;7.67;;;21.30;99.90;;;;;;4997122;28;20879;-78
2022/06/22 01:09:16;;;;;;;14.83;7.83;;;21.30;99.90;;;;;;4995111;28;20418;-78
2022/06/22 01:12:17;;;;;;;11.60;7.20;;;21.40;99.90;;;;;;4995565;28;20943;-78
2022/06/22 01:14:52;;;;;;;19.90;7.27;;;21.30;99.90;;;;;;4996713;28;20483;-78
2022/06/22 01:17:28;;;;;;;8.43;7.03;;;21.40;99.90;;;;;;4995072;28;20499;-78
2022/06/22 01:20:13;;;;;;;12.43;6.70;;;21.40;99.90;;;;;;4997659;28;20433;-78
2022/06/22 01:22:47;;;;;;;7.97;7.27;;;21.50;99.90;;;;;;4995303;28;20926;-77
2022/06/22 01:25:21;;;;;;;13.13;7.10;;;21.50;99.90;;;;;;4995768;28;20515;-78
2022/06/22 01:27:47;;;;;;;14.33;7.70;;;21.60;99.90;;;;;;4997996;28;20440;-78
2022/06/22 01:30:21;;;;;;;7.67;6.63;;;21.60;99.90;;;;;;4997998;28;20422;-78
2022/06/22 01:32:48;;;;;;;12.53;7.73;;;21.70;99.90;;;;;;4997917;28;20448;-78
2022/06/22 01:35:23;;;;;;;9.63;6.90;;;21.70;99.90;;;;;;4997284;28;20536;-78
2022/06/22 01:37:49;;;;;;;10.23;7.63;;;21.70;99.90;;;;;;5014572;28;20410;-78
2022/06/22 01:40:22;;;;;;;14.90;7.53;;;21.70;99.90;;;;;;4998195;28;20430;-79
2022/06/22 01:43:20;;;;;;;9.00;7.27;;;21.70;99.90;;;;;;4999496;28;20408;-78
2022/06/22 01:46:00;;;;;;;13.40;8.73;;;21.60;99.90;;;;;;4984469;28;20501;-78
2022/06/22 01:48:43;;;;;;;10.50;6.57;;;21.50;99.90;;;;;;5001889;28;20471;-78
2022/06/22 01:51:18;;;;;;;11.57;8.07;;;21.40;99.90;;;;;;4992036;28;20421;-78
2022/06/22 01:53:52;;;;;;;11.70;7.80;;;21.30;99.90;;;;;;4991935;28;20949;-77
2022/06/22 01:56:39;;;;;;;12.43;8.60;;;21.30;99.90;;;;;;4992063;28;20408;-77
2022/06/22 01:59:24;;;;;;;15.07;8.73;;;21.30;99.90;;;;;;4991631;28;20492;-78
2022/06/22 02:01:58;;;;;;;17.07;8.73;;;21.30;99.90;;;;;;4991785;28;20475;-78
2022/06/22 02:04:30;;;;;;;13.83;9.40;;;21.40;99.90;;;;;;4991629;28;20455;-78
2022/06/22 02:10:09;;;;;;;14.23;8.57;;;21.30;99.90;;;;;;4992304;28;20504;-79
2022/06/22 02:12:42;;;;;;;18.93;8.87;;;21.30;99.90;;;;;;4995036;28;20461;-78
2022/06/22 02:15:18;;;;;;;11.50;8.97;;;21.30;99.90;;;;;;4992355;28;20489;-79
2022/06/22 02:17:45;;;;;;;13.27;8.63;;;21.30;99.90;;;;;;4992721;28;20443;-80
2022/06/22 02:20:31;;;;;;;16.20;9.07;;;21.30;99.90;;;;;;5006873;28;20891;-80
2022/06/22 02:23:03;;;;;;;17.27;9.57;;;21.10;99.90;;;;;;4991758;28;21118;-80
2022/06/22 02:25:35;;;;;;;15.53;9.77;;;21.00;99.90;;;;;;4992671;28;20560;-80
2022/06/22 02:28:03;;;;;;;22.17;9.80;;;20.90;99.90;;;;;;4991907;28;20454;-80
2022/06/22 02:30:30;;;;;;;14.20;10.40;;;20.80;99.90;;;;;;5006675;28;20548;-79
2022/06/22 02:32:56;;;;;;;16.77;10.27;;;20.50;99.90;;;;;;4989960;28;20445;-79
2022/06/22 02:35:21;;;;;;;12.47;9.23;;;20.30;99.90;;;;;;4973959;28;21158;-79
2022/06/22 02:38:00;;;;;;;14.70;10.20;;;20.30;99.90;;;;;;4991842;28;20436;-79
2022/06/22 02:40:30;;;;;;;13.47;10.67;;;20.10;99.90;;;;;;4990289;28;20228;-79
2022/06/22 02:45:43;;;;;;;15.03;10.90;;;19.80;99.90;;;;;;4991565;28;20897;-80
2022/06/22 02:48:26;;;;;;;15.23;10.80;;;19.80;99.90;;;;;;4973554;28;20859;-80
2022/06/22 02:51:19;;;;;;;17.20;10.47;;;20.00;99.90;;;;;;4991371;28;20404;-80
2022/06/22 02:53:46;;;;;;;17.40;10.40;;;20.10;99.90;;;;;;4976322;28;20618;-80
2022/06/22 02:56:20;;;;;;;17.97;11.27;;;20.10;99.90;;;;;;4990360;28;20427;-80
2022/06/22 02:58:46;;;;;;;20.90;10.63;;;20.10;99.90;;;;;;4990521;28;20825;-79
2022/06/22 03:01:15;;;;;;;16.00;9.67;;;20.10;99.90;;;;;;4994101;28;20439;-79
2022/06/22 03:03:52;;;;;;;13.87;9.40;;;20.20;99.90;;;;;;4994915;28;20209;-79
2022/06/22 03:06:21;;;;;;;15.43;10.50;;;20.30;99.90;;;;;;4994480;28;20405;-79
2022/06/22 03:08:47;;;;;;;14.27;10.30;;;20.20;99.90;;;;;;4992524;28;21003;-79
2022/06/22 03:11:13;;;;;;;14.07;11.27;;;20.30;99.90;;;;;;4993281;28;20462;-79
2022/06/22 03:13:48;;;;;;;16.23;11.40;;;20.20;99.90;;;;;;4995049;28;20593;-78
2022/06/22 03:16:29;;;;;;;15.63;10.57;;;20.30;99.90;;;;;;4993411;28;20177;-78
2022/06/22 03:18:57;;;;;;;20.20;11.53;;;20.20;99.90;;;;;;4992215;28;20440;-79
2022/06/22 03:21:23;;;;;;;19.63;12.70;;;20.20;99.90;;;;;;4972405;28;20508;-79
2022/06/22 03:24:03;;;;;;;14.97;11.50;;;20.20;99.90;;;;;;4972452;28;20537;-79
2022/06/22 03:26:35;;;;;;;14.97;10.00;;;20.20;99.90;;;;;;4988396;28;20178;-78
2022/06/22 03:29:13;;;;;;;14.93;10.83;;;20.20;99.90;;;;;;4989921;28;20421;-79
2022/06/22 03:31:46;;;;;;;13.60;10.77;;;20.20;99.90;;;;;;4988254;28;20514;-75
2022/06/22 03:34:21;;;;;;;14.57;10.20;;;20.30;99.90;;;;;;4988880;28;20557;-74
2022/06/22 03:36:53;;;;;;;15.23;11.10;;;20.30;99.90;;;;;;4989043;28;20976;-74
2022/06/22 03:39:21;;;;;;;20.40;10.90;;;20.30;99.90;;;;;;4987505;28;20474;-74
2022/06/22 03:41:52;;;;;;;14.07;11.80;;;20.30;99.90;;;;;;4989061;28;20949;-74
2022/06/22 03:44:29;;;;;;;12.73;9.90;;;20.20;99.90;;;;;;4987754;28;20503;-74
2022/06/22 03:47:04;;;;;;;16.60;11.43;;;20.10;99.90;;;;;;4989302;28;20424;-74
2022/06/22 03:49:37;;;;;;;11.97;10.77;;;20.10;99.90;;;;;;4989448;28;20421;-74
2022/06/22 03:52:31;;;;;;;16.93;11.20;;;20.10;99.90;;;;;;4989554;28;20451;-74
2022/06/22 03:55:01;;;;;;;15.00;11.30;;;20.10;99.90;;;;;;4988234;28;20475;-74
2022/06/22 03:57:31;;;;;;;16.67;12.00;;;20.10;99.90;;;;;;4989236;28;20981;-74
2022/06/22 03:59:58;;;;;;;14.77;11.07;;;20.10;99.90;;;;;;4988427;28;20451;-74
2022/06/22 04:02:25;;;;;;;19.57;11.90;;;20.10;99.90;;;;;;4989190;28;20456;-74
2022/06/22 04:04:54;;;;;;;16.07;10.63;;;20.10;99.90;;;;;;4989731;28;20453;-74
2022/06/22 04:07:21;;;;;;;14.77;11.10;;;20.20;99.90;;;;;;4990864;28;20483;-74
2022/06/22 04:09:53;;;;;;;16.27;11.67;;;20.10;99.90;;;;;;4989495;28;20424;-74
2022/06/22 04:12:27;;;;;;;16.03;11.17;;;20.10;99.90;;;;;;4989663;28;20436;-74
2022/06/22 04:15:13;;;;;;;15.07;11.27;;;20.10;99.90;;;;;;4990217;28;20506;-74
2022/06/22 04:17:55;;;;;;;16.07;10.67;;;20.10;99.90;;;;;;4973603;28;21001;-74
2022/06/22 04:20:49;;;;;;;12.77;11.03;;;20.20;99.90;;;;;;4988349;28;20444;-74
2022/06/22 04:23:13;;;;;;;15.10;12.20;;;20.20;99.90;;;;;;4988117;28;20809;-74
2022/06/22 04:25:40;;;;;;;16.93;11.50;;;20.20;99.90;;;;;;4988203;28;20508;-74
2022/06/22 04:28:10;;;;;;;12.80;11.33;;;20.20;99.90;;;;;;4986291;28;20440;-75
2022/06/22 04:30:43;;;;;;;15.30;11.23;;;20.30;99.90;;;;;;4987981;28;20432;-75
2022/06/22 04:33:19;;;;;;;21.73;11.50;;;20.30;99.90;;;;;;4991244;28;20495;-75
2022/06/22 04:36:10;;;;;;;17.07;10.90;;;20.40;99.90;;;;;;4991726;28;20419;-75
2022/06/22 04:38:38;;;;;;;15.77;11.60;;;20.40;99.90;;;;;;4991689;28;20515;-75
2022/06/22 04:41:07;;;;;;;14.93;10.97;;;20.40;99.90;;;;;;4991487;28;20421;-74
2022/06/22 04:43:35;;;;;;;17.00;11.50;;;20.40;99.90;;;;;;4991384;28;20448;-74
2022/06/22 04:46:01;;;;;;;16.27;12.13;;;20.40;99.90;;;;;;4989965;28;20421;-74
2022/06/22 04:48:39;;;;;;;14.10;11.43;;;20.30;99.90;;;;;;4991460;28;20420;-75
2022/06/22 04:51:11;;;;;;;17.10;11.30;;;20.30;99.90;;;;;;4991402;28;20196;-75
2022/06/22 04:53:43;;;;;;;17.00;11.33;;;20.30;99.90;;;;;;4991159;28;20615;-75
2022/06/22 04:56:15;;;;;;;15.40;10.73;;;20.40;99.90;;;;;;4989683;28;20421;-75
2022/06/22 04:58:50;;;;;;;12.10;9.93;;;20.50;99.90;;;;;;4991128;28;20424;-75
2022/06/22 05:01:22;;;;;;;13.50;10.40;;;20.60;99.90;;;;;;4990932;28;20833;-75
2022/06/22 05:03:49;;;;;;;17.50;11.13;;;20.60;99.90;;;;;;4990952;28;20448;-75
2022/06/22 05:06:22;;;;;;;14.77;11.13;;;20.60;99.90;;;;;;4990725;28;20441;-75
2022/06/22 05:08:55;;;;;;;17.00;11.10;;;20.70;99.90;;;;;;4991078;28;21027;-75
2022/06/22 05:11:41;;;;;;;12.33;10.77;;;20.70;99.90;;;;;;4990526;28;20785;-75
2022/06/22 05:14:18;;;;;;;13.40;10.17;;;20.80;99.90;;;;;;4990156;28;20476;-75
2022/06/22 05:16:52;;;;;;;11.37;9.60;;;20.80;99.90;;;;;;4990395;28;20412;-75
2022/06/22 05:19:19;;;;;;;16.00;10.43;;;21.00;99.90;;;;;;4990721;28;20459;-76
2022/06/22 05:21:45;;;;;;;15.20;10.70;;;21.00;99.90;;;;;;4990637;28;20420;-75
2022/06/22 05:24:13;;;;;;;14.60;10.50;;;21.20;99.90;;;;;;4988745;28;20515;-75
2022/06/22 05:26:41;;;;;;;11.77;10.43;;;21.30;99.90;;;;;;4990829;28;20512;-76
2022/06/22 05:29:08;;;;;;;13.00;9.53;;;21.40;99.90;;;;;;4990699;28;20433;-75
2022/06/22 05:31:41;;;;;;;11.13;8.23;;;21.60;99.90;;;;;;4991387;28;20914;-75
2022/06/22 05:34:15;;;;;;;10.93;8.70;;;21.70;99.90;;;;;;4990979;28;20473;-75
2022/06/22 05:36:45;;;;;;;10.60;8.23;;;21.80;99.90;;;;;;5006223;28;20420;-75
2022/06/22 05:39:12;;;;;;;13.37;10.20;;;21.80;99.90;;;;;;4991294;28;20427;-75
2022/06/22 05:41:42;;;;;;;16.03;11.13;;;21.60;99.90;;;;;;4989759;28;20429;-75
2022/06/22 05:44:13;;;;;;;15.90;11.80;;;21.50;99.90;;;;;;4989906;28;20484;-75
2022/06/22 05:46:51;;;;;;;15.70;12.37;;;21.30;99.90;;;;;;4991055;28;20543;-75
2022/06/22 05:49:17;;;;;;;20.33;12.93;;;21.30;99.90;;;;;;4990920;28;20592;-75
2022/06/22 05:52:04;;;;;;;12.13;10.87;;;21.10;99.90;;;;;;4990807;28;20905;-75
2022/06/22 05:54:41;;;;;;;13.87;12.07;;;21.00;99.90;;;;;;4990956;28;20541;-76
2022/06/22 05:57:31;;;;;;;16.97;12.70;;;21.00;99.90;;;;;;4988956;28;20436;-76
2022/06/22 06:00:02;;;;;;;22.07;12.83;;;21.10;99.90;;;;;;4988893;28;20417;-76
2022/06/22 06:02:42;;;;;;;13.70;11.97;;;21.00;99.90;;;;;;4990220;28;20498;-76
2022/06/22 06:05:24;;;;;;;18.33;13.50;;;21.10;99.90;;;;;;4990297;28;20444;-76
2022/06/22 06:07:53;;;;;;;17.67;13.00;;;21.00;99.90;;;;;;4988703;28;20450;-76
2022/06/22 06:10:27;;;;;;;21.13;13.40;;;20.90;99.90;;;;;;4990364;28;20422;-75
2022/06/22 06:13:07;;;;;;;20.10;15.90;;;20.90;99.90;;;;;;4989931;28;20436;-75
2022/06/22 06:15:36;;;;;;;18.43;14.90;;;20.70;99.90;;;;;;4989756;28;20481;-75
2022/06/22 06:18:04;;;;;;;16.30;14.60;;;20.20;99.90;;;;;;4989851;28;20847;-75
2022/06/22 06:20:42;;;;;;;20.20;16.77;;;20.20;99.90;;;;;;4988318;28;20457;-76
2022/06/22 06:23:17;;;;;;;26.53;16.20;;;20.10;99.90;;;;;;4989664;28;20423;-75
2022/06/22 06:28:45;;;;;;;23.87;17.37;;;20.10;99.90;;;;;;4989447;28;20660;-75
2022/06/22 06:31:27;;;;;;;22.50;16.17;;;20.20;99.90;;;;;;4989206;28;20447;-75
2022/06/22 06:33:55;;;;;;;24.93;17.90;;;20.30;99.90;;;;;;4989129;28;20594;-75
2022/06/22 06:36:30;;;;;;;20.40;17.10;;;20.10;99.90;;;;;;4988017;28;20447;-75
2022/06/22 06:39:12;;;;;;;20.77;18.13;;;20.10;99.90;;;;;;4988194;28;20499;-76
2022/06/22 06:42:03;;;;;;;26.87;17.90;;;19.90;99.90;;;;;;4987653;28;20432;-76
2022/06/22 06:44:33;;;;;;;18.77;16.50;;;19.70;99.90;;;;;;4988920;28;20445;-75
2022/06/22 06:47:06;;;;;;;35.83;17.23;;;19.60;99.90;;;;;;4987433;28;20486;-75
2022/06/22 06:49:45;;;;;;;22.17;18.50;;;19.70;99.90;;;;;;4988762;28;20432;-75
2022/06/22 06:52:47;;;;;;;19.03;15.40;;;19.90;99.90;;;;;;4986977;28;20428;-75
2022/06/22 06:55:13;;;;;;;26.33;18.20;;;20.10;99.90;;;;;;4988317;28;21006;-75
2022/06/22 06:57:47;;;;;;;23.30;18.93;;;20.30;99.90;;;;;;4986923;28;20428;-75
2022/06/22 07:00:13;;;;;;;23.07;18.70;;;20.30;99.90;;;;;;4988720;28;20182;-75
2022/06/22 07:02:41;;;;;;;23.43;18.10;;;20.40;99.90;;;;;;4988385;28;20442;-75
2022/06/22 07:05:14;;;;;;;19.93;17.83;;;20.50;99.90;;;;;;4988256;28;20471;-75
2022/06/22 07:07:55;;;;;;;25.63;17.07;;;20.50;99.90;;;;;;4988596;28;20872;-75
2022/06/22 07:10:52;;;;;;;23.93;18.33;;;20.70;99.90;;;;;;4988594;28;20867;-75
2022/06/22 07:13:27;;;;;;;22.50;16.47;;;20.80;99.90;;;;;;4987973;28;20465;-75
2022/06/22 07:16:05;;;;;;;22.67;16.10;;;21.00;99.90;;;;;;4986532;28;20860;-75
2022/06/22 07:18:39;;;;;;;18.63;14.23;;;21.10;99.90;;;;;;4987942;28;20420;-75
2022/06/22 07:21:25;;;;;;;20.00;15.50;;;21.10;99.90;;;;;;4986427;28;20524;-75
2022/06/22 07:24:01;;;;;;;18.90;13.93;;;21.20;99.90;;;;;;4988133;28;20864;-75
2022/06/22 07:26:48;;;;;;;19.53;15.37;;;21.10;99.90;;;;;;4986442;28;20523;-75
2022/06/22 07:29:37;;;;;;;17.80;14.97;;;21.00;99.90;;;;;;4988050;28;20417;-75
2022/06/22 07:32:31;;;;;;;20.47;13.73;;;20.90;99.90;;;;;;4987307;28;20839;-76
2022/06/22 07:35:04;;;;;;;20.53;14.60;;;21.00;99.90;;;;;;4987974;28;20474;-76
2022/06/22 07:37:34;;;;;;;16.37;14.67;;;21.00;99.90;;;;;;4987371;28;20413;-76
2022/06/22 07:40:11;;;;;;;16.00;13.63;;;21.20;99.90;;;;;;4987041;28;20421;-76
2022/06/22 07:42:36;;;;;;;12.83;11.40;;;21.40;99.90;;;;;;4987311;28;20524;-75
2022/06/22 07:45:03;;;;;;;19.37;12.30;;;21.50;99.90;;;;;;4985707;28;20547;-76
2022/06/22 07:47:33;;;;;;;18.80;11.87;;;21.70;99.90;;;;;;4987337;28;20294;-76
2022/06/22 07:50:23;;;;;;;17.70;12.10;;;21.80;99.90;;;;;;4987027;28;20932;-76
2022/06/22 07:53:14;;;;;;;14.23;12.10;;;21.90;99.90;;;;;;4987076;28;20551;-76
2022/06/22 07:56:05;;;;;;;19.80;13.10;;;22.00;99.90;;;;;;4987071;28;20520;-76
2022/06/22 07:58:47;;;;;;;13.63;10.90;;;22.00;99.90;;;;;;4986830;28;20413;-76
2022/06/22 08:01:18;;;;;;;17.83;11.37;;;22.00;99.90;;;;;;4987168;28;21045;-76
2022/06/22 08:04:08;;;;;;;10.67;9.37;;;22.10;99.90;;;;;;4985638;28;20437;-76
2022/06/22 08:06:39;;;;;;;16.27;10.73;;;22.40;99.90;;;;;;4988447;28;20425;-76
2022/06/22 08:09:26;;;;;;;19.60;10.63;;;22.70;99.90;;;;;;4990813;28;20425;-76
2022/06/22 08:12:03;;;;;;;12.80;9.90;;;22.80;99.90;;;;;;4990886;28;20416;-76
2022/06/22 08:14:38;;;;;;;12.90;11.27;;;22.90;99.90;;;;;;4990527;28;21338;-76
2022/06/22 08:17:43;;;;;;;12.73;10.70;;;22.90;99.90;;;;;;4990895;28;20410;-73
2022/06/22 08:20:14;;;;;;;17.10;9.50;;;22.80;99.90;;;;;;4910769;29;20439;-74
2022/06/22 08:22:42;;;;;;;16.47;10.00;;;22.70;99.90;;;;;;4972637;28;20484;-74
2022/06/22 08:25:09;;;;;;;11.10;9.33;;;22.70;99.90;;;;;;4990358;28;20955;-74
2022/06/22 08:27:35;;;;;;;13.40;9.57;;;22.50;99.90;;;;;;5005264;28;20553;-74
2022/06/22 08:30:00;;;;;;;12.17;10.83;;;22.50;99.90;;;;;;4990480;28;20530;-74
2022/06/22 08:32:37;;;;;;;12.60;9.97;;;22.40;99.90;;;;;;4990717;28;20191;-74
2022/06/22 08:35:09;;;;;;;12.50;10.10;;;22.40;99.90;;;;;;4990542;28;20512;-73
2022/06/22 08:37:40;;;;;;;11.10;10.00;;;22.30;99.90;;;;;;4990476;28;21041;-74
2022/06/22 08:40:20;;;;;;;14.10;9.27;;;22.20;99.90;;;;;;4990618;28;20416;-74
2022/06/22 08:42:54;;;;;;;18.83;11.07;;;22.10;99.90;;;;;;4990794;28;20416;-74
2022/06/22 08:45:54;;;;;;;11.30;9.00;;;22.10;99.90;;;;;;4990473;28;20424;-74
2022/06/22 08:48:22;;;;;;;14.10;10.10;;;22.00;99.90;;;;;;4990167;28;20427;-74
2022/06/22 08:51:22;;;;;;;15.00;11.13;;;21.90;99.90;;;;;;4990182;28;20985;-74
2022/06/22 08:53:54;;;;;;;12.13;10.93;;;21.90;99.90;;;;;;4988299;28;20473;-74
2022/06/22 08:56:45;;;;;;;15.73;11.77;;;22.00;99.90;;;;;;4989952;28;20945;-74
2022/06/22 08:59:22;;;;;;;11.07;9.87;;;22.00;99.90;;;;;;4990079;28;20497;-74
2022/06/22 09:01:50;;;;;;;10.73;9.63;;;22.00;99.90;;;;;;4989882;28;20847;-74
2022/06/22 09:04:42;;;;;;;11.70;10.27;;;21.90;99.90;;;;;;4989749;28;20492;-74
2022/06/22 09:07:14;;;;;;;10.47;9.47;;;21.90;99.90;;;;;;4988651;28;20429;-74
2022/06/22 09:10:17;;;;;;;12.00;9.90;;;21.90;99.90;;;;;;4989751;28;20472;-74
2022/06/22 09:13:18;;;;;;;11.30;8.60;;;21.90;99.90;;;;;;4989765;28;20463;-74
2022/06/22 09:16:14;;;;;;;10.77;9.70;;;21.80;99.90;;;;;;4956164;28;20509;-74
2022/06/22 09:18:59;;;;;;;15.90;9.63;;;21.90;99.90;;;;;;4988473;28;20471;-74
2022/06/22 09:21:46;;;;;;;14.27;8.40;;;21.90;99.90;;;;;;4990011;28;20895;-73
2022/06/22 09:24:20;;;;;;;16.90;10.90;;;21.90;99.90;;;;;;4989707;28;21037;-74
2022/06/22 09:27:21;;;;;;;17.73;9.40;;;22.00;99.90;;;;;;4990098;28;20919;-74
2022/06/22 09:30:09;;;;;;;14.30;11.20;;;22.00;99.90;;;;;;4955814;28;20417;-73
2022/06/22 09:32:49;;;;;;;15.97;10.80;;;22.00;99.90;;;;;;4989701;28;20417;-74
2022/06/22 09:35:47;;;;;;;19.90;10.53;;;21.90;99.90;;;;;;4987403;28;20829;-74
2022/06/22 09:38:38;;;;;;;17.27;11.63;;;21.90;99.90;;;;;;4989314;28;20496;-73
2022/06/22 09:41:32;;;;;;;12.33;10.63;;;22.00;99.90;;;;;;4987451;28;20424;-73
2022/06/22 09:44:07;;;;;;;13.50;12.10;;;22.10;99.90;;;;;;4989092;28;20482;-74
2022/06/22 09:47:11;;;;;;;16.93;11.23;;;22.40;99.90;;;;;;4989102;28;20759;-73
2022/06/22 09:49:55;;;;;;;12.33;9.80;;;22.60;99.90;;;;;;4989063;28;20525;-74
2022/06/22 09:52:39;;;;;;;13.57;10.90;;;22.70;99.90;;;;;;4989156;28;20641;-74
2022/06/22 09:58:30;;;;;;;13.13;10.23;;;23.10;99.90;;;;;;4956953;28;20521;-74
2022/06/22 10:01:06;;;;;;;11.53;10.33;;;23.20;99.90;;;;;;4989234;28;20511;-74
2022/06/22 10:03:44;;;;;;;12.43;10.20;;;23.20;99.90;;;;;;4989238;28;20445;-74
2022/06/22 10:06:13;;;;;;;16.10;11.37;;;23.10;99.90;;;;;;4988888;28;20422;-74
2022/06/22 10:08:57;;;;;;;14.90;11.63;;;23.20;99.90;;;;;;4988831;28;20426;-74
2022/06/22 10:11:40;;;;;;;17.27;10.97;;;23.10;99.90;;;;;;4988963;28;20422;-74
2022/06/22 10:14:18;;;;;;;24.80;12.63;;;23.10;99.90;;;;;;4988922;28;20504;-74
2022/06/22 10:17:02;;;;;;;17.67;11.73;;;23.00;99.90;;;;;;4989166;28;20426;-74
2022/06/22 10:19:42;;;;;;;18.07;13.33;;;23.00;99.90;;;;;;4989412;28;20440;-74
2022/06/22 10:22:37;;;;;;;12.00;10.07;;;22.90;99.90;;;;;;4989146;28;20457;-74
2022/06/22 10:25:44;;;;;;;17.73;11.20;;;22.80;99.90;;;;;;4988947;28;20483;-74
2022/06/22 10:28:27;;;;;;;16.40;12.67;;;22.70;99.90;;;;;;4988886;28;20974;-74
2022/06/22 10:31:40;;;;;;;17.60;12.17;;;22.50;99.90;;;;;;4988845;28;20469;-74
2022/06/22 10:34:30;;;;;;;15.13;13.33;;;22.40;99.90;;;;;;4977189;28;20488;-74
2022/06/22 10:37:17;;;;;;;17.63;12.40;;;22.40;99.90;;;;;;4989255;28;20464;-73
2022/06/22 10:45:08;;;;;;;15.07;12.10;;;22.40;99.90;;;;;;4988601;28;20417;-74
2022/06/22 10:46:10;;;;;;;18.53;11.33;;;22.20;99.90;;;;;;4988512;28;20424;-75
2022/06/22 10:49:07;;;;;;;16.53;11.00;;;22.30;99.90;;;;;;4988618;28;20902;-74
2022/06/22 10:51:58;;;;;;;14.47;10.70;;;22.20;99.90;;;;;;4988493;28;20418;-74
2022/06/22 10:54:49;;;;;;;12.20;11.00;;;22.20;99.90;;;;;;4986762;28;20587;-74
2022/06/22 10:57:42;;;;;;;16.90;11.23;;;22.30;99.90;;;;;;4988479;28;20434;-74
2022/06/22 11:00:34;;;;;;;15.70;11.33;;;22.40;99.90;;;;;;4988647;28;20410;-74
2022/06/22 11:02:59;;;;;;;13.20;10.43;;;22.40;99.90;;;;;;4988770;28;21347;-73
2022/06/22 11:05:31;;;;;;;15.57;10.83;;;22.40;99.90;;;;;;4988506;28;20512;-73
2022/06/22 11:08:10;;;;;;;15.27;11.17;;;22.40;99.90;;;;;;4988152;28;20274;-73
2022/06/22 11:10:46;;;;;;;21.77;11.80;;;22.20;99.90;;;;;;4986514;28;20852;-73
2022/06/22 11:13:30;;;;;;;12.80;9.60;;;21.80;99.90;;;;;;4988227;28;20458;-72
2022/06/22 11:16:44;;;;;;;15.37;9.10;;;21.50;99.90;;;;;;4988550;28;20420;-73
2022/06/22 11:19:21;;;;;;;9.27;7.70;;;21.30;99.90;;;;;;4970851;28;20539;-73
2022/06/22 11:21:52;;;;;;;16.23;7.90;;;21.10;99.90;;;;;;4987967;28;20423;-73
2022/06/22 11:24:27;;;;;;;13.20;8.37;;;21.00;99.90;;;;;;4988022;28;20486;-73
2022/06/22 11:30:48;;;;;;;12.40;8.30;;;21.00;99.90;;;;;;4989089;28;20396;-73
2022/06/22 11:33:38;;;;;;;10.70;7.20;;;21.00;99.90;;;;;;4989277;28;20421;-73
2022/06/22 11:36:26;;;;;;;7.80;6.10;;;20.90;99.90;;;;;;4989713;28;20434;-73
2022/06/22 11:39:01;;;;;;;15.40;6.00;;;20.90;99.90;;;;;;4989830;28;20412;-74
2022/06/22 11:41:45;;;;;;;13.83;5.60;;;20.70;99.90;;;;;;4989172;28;21035;-74
2022/06/22 11:44:35;;;;;;;16.00;6.10;;;20.70;99.90;;;;;;4989628;28;20432;-74
2022/06/22 11:47:19;;;;;;;12.30;5.60;;;20.70;99.90;;;;;;4988773;28;20858;-73
2022/06/22 11:49:51;;;;;;;14.43;5.90;;;20.80;99.90;;;;;;4988709;28;20401;-73
2022/06/22 11:52:22;;;;;;;15.40;5.83;;;21.00;99.90;;;;;;4988647;28;20417;-74
2022/06/22 11:55:10;;;;;;;13.27;5.07;;;21.10;99.90;;;;;;4988138;28;20996;-73
2022/06/22 11:57:58;;;;;;;15.07;5.60;;;21.00;99.90;;;;;;4986677;28;20425;-74
2022/06/22 12:00:50;;;;;;;11.73;4.50;;;20.90;99.90;;;;;;4987173;28;20894;-73
2022/06/22 12:03:37;;;;;;;13.83;4.57;;;20.90;99.90;;;;;;4987036;28;20444;-73
2022/06/22 12:06:27;;;;;;;18.17;5.13;;;20.90;99.90;;;;;;4987200;28;20490;-73
2022/06/22 12:09:18;;;;;;;18.33;5.83;;;21.00;99.90;;;;;;4987125;28;20416;-73
2022/06/22 12:11:58;;;;;;;9.37;4.40;;;21.20;99.90;;;;;;4987385;28;20412;-73
2022/06/22 12:15:04;;;;;;;15.70;5.10;;;21.20;99.90;;;;;;5001728;28;20487;-73
2022/06/22 12:17:39;;;;;;;11.93;4.13;;;21.30;99.90;;;;;;4987107;28;20839;-73
2022/06/22 12:20:25;;;;;;;13.93;4.30;;;21.50;99.90;;;;;;4987557;28;20416;-74
2022/06/22 12:23:36;;;;;;;16.43;6.40;;;21.60;99.90;;;;;;4987556;28;20945;-74
2022/06/22 12:26:20;;;;;;;21.23;5.67;;;21.60;99.90;;;;;;4984593;28;20825;-73
2022/06/22 12:28:54;;;;;;;12.83;4.23;;;21.60;99.90;;;;;;4986790;28;20425;-74
2022/06/22 12:31:22;;;;;;;18.13;5.40;;;21.60;99.90;;;;;;4987738;28;20412;-74
2022/06/22 12:34:16;;;;;;;9.10;4.87;;;21.60;99.90;;;;;;5002522;28;20473;-74
2022/06/22 12:36:48;;;;;;;9.30;4.23;;;21.80;99.90;;;;;;4988094;28;21126;-74
2022/06/22 12:39:26;;;;;;;13.70;5.27;;;21.90;99.90;;;;;;4988284;28;20922;-74
2022/06/22 12:41:52;;;;;;;15.67;4.90;;;22.00;99.90;;;;;;4988411;28;20417;-74
2022/06/22 12:44:42;;;;;;;14.73;4.80;;;22.20;99.90;;;;;;4987781;28;20897;-74
2022/06/22 12:47:17;;;;;;;10.47;4.70;;;22.40;99.90;;;;;;4986482;28;20613;-73
2022/06/22 12:49:52;;;;;;;8.27;3.47;;;22.30;99.90;;;;;;4988801;28;20500;-74
2022/06/22 12:52:43;;;;;;;8.83;4.03;;;22.60;99.90;;;;;;4988528;28;20430;-74
2022/06/22 12:55:15;;;;;;;11.60;4.23;;;22.80;99.90;;;;;;4990714;28;21300;-74
2022/06/22 12:58:16;;;;;;;15.43;5.53;;;22.80;99.90;;;;;;4990773;28;20508;-74
2022/06/22 13:00:43;;;;;;;12.83;4.60;;;22.70;99.90;;;;;;4982478;28;20429;-73
2022/06/22 13:03:20;;;;;;;18.03;4.13;;;22.40;99.90;;;;;;4990479;28;20930;-74
2022/06/22 13:05:47;;;;;;;8.67;3.50;;;22.40;99.90;;;;;;5006157;28;20424;-74
2022/06/22 13:08:18;;;;;;;12.97;3.67;;;22.50;99.90;;;;;;4989981;28;20506;-74
2022/06/22 13:10:48;;;;;;;15.97;4.30;;;22.40;99.90;;;;;;4991846;28;20932;-74
2022/06/22 13:13:22;;;;;;;7.67;3.33;;;22.30;99.90;;;;;;4990962;28;20457;-75
2022/06/22 13:16:03;;;;;;;15.30;4.53;;;22.30;99.90;;;;;;4991047;28;21292;-73
2022/06/22 13:18:44;;;;;;;14.90;3.97;;;22.20;99.90;;;;;;4990783;28;20410;-75
2022/06/22 13:21:17;;;;;;;12.10;3.67;;;22.00;99.90;;;;;;4990802;28;20832;-74
2022/06/22 13:23:55;;;;;;;18.93;5.23;;;22.20;99.90;;;;;;4989309;28;20450;-74
2022/06/22 13:26:35;;;;;;;11.40;4.50;;;22.30;99.90;;;;;;4990484;28;20444;-74
2022/06/22 13:29:22;;;;;;;16.80;3.77;;;22.10;99.90;;;;;;4988793;28;20421;-73
2022/06/22 13:31:52;;;;;;;15.27;3.70;;;22.20;99.90;;;;;;4990453;28;20477;-74
2022/06/22 13:34:37;;;;;;;13.33;4.50;;;22.10;99.90;;;;;;4990400;28;20591;-74
2022/06/22 13:37:28;;;;;;;13.47;3.50;;;22.10;99.90;;;;;;4988945;28;20480;-74
2022/06/22 13:40:03;;;;;;;14.00;3.80;;;22.20;99.90;;;;;;4967132;28;20467;-74
2022/06/22 13:42:57;;;;;;;11.80;3.43;;;22.50;99.90;;;;;;4988748;28;20436;-74
2022/06/22 13:45:35;;;;;;;13.47;4.13;;;22.70;99.90;;;;;;4990453;28;20504;-74
2022/06/22 13:48:32;;;;;;;17.53;3.87;;;23.10;99.90;;;;;;4990382;28;20429;-74